Sao Sebastiao da Boa Vista, Brazil
Current Conditions -  °F | °C
As of 4:00 AM on Tuesday 21 Oct 2014 (Local Time) from SBBE Reporting Station
Clear Clear  
Wind Chill: 77°   Ceiling: Unl
Heat Index: 78°   Visibility: 6mi
Dew Point: 73°   Wind: 8mph
Humidity: 89%   Direction: 80°E
Pressure: 29.8"   Gusts: NA
Location:  1.72°S, 49.54°W
Report Text: SBBE 210700Z 08007KT CAVOK 25/23 Q1009
Loading
Personal Weather Stations






























Interactive Weather Map
Tropical Storm Tracking
New forecast layout! Learn more

10-Day Weather Forecast

Advertisements
Track Severe Weather on mobile